Shawnee Hills, Ohio
Current Conditions -  °F | °C
As of 7:53 AM on Wednesday 22 Oct 2014 (Local Time) from KOSU Reporting Station
Overcast Overcast  
Wind Chill: 36°   Ceiling: 800
Heat Index: 43°   Visibility: 8mi
Dew Point: 40°   Wind: 14mph
Humidity: 89%   Direction: 330°NNW
Pressure: 30.23"   Gusts: NA
Location:  40.1701°N, 83.0808°W
Report Text: KOSU 221153Z 33012KT 8SM OVC008 06/04 A3023 RMK AO2 SLP241 T00610044 10067 20061 53011
Loading
Personal Weather Stations






























Interactive Weather Map
Tropical Storm Tracking
New forecast layout! Learn more

10-Day Weather Forecast

Advertisements
Track Severe Weather on mobile